Toquerville, Utah
Current Conditions -  °F | °C
As of 5:55 PM on Wednesday 17 Dec 2014 (Local Time) from KSGU Reporting Station
Scattered Clouds Scattered Clouds  
Wind Chill: 46°   Ceiling: Unl
Heat Index: 46°   Visibility: 10mi
Dew Point: 34°   Wind: 0mph
Humidity: 62%   Direction: NA
Pressure: 30.06"   Gusts: NA
Location:  37.25°N, 113.28°W
Report Text: KSGU 180055Z AUTO 00000KT 10SM SCT050 SCT090 08/01 A3006 RMK AO1
Loading
Personal Weather Stations






























Interactive Weather Map New forecast layout! Learn more

10-Day Weather Forecast

Advertisements
Track Severe Weather on mobile